sensor_id;sensor_type;location;lat;lon;timestamp;temperature;humidity
19152;DHT22;9708;53.114;9.388;2022-08-02T00:02:05;11.50;99.90
19152;DHT22;9708;53.114;9.388;2022-08-02T00:04:32;11.50;99.90
19152;DHT22;9708;53.114;9.388;2022-08-02T00:07:00;11.50;99.90
19152;DHT22;9708;53.114;9.388;2022-08-02T00:09:27;11.50;99.90
19152;DHT22;9708;53.114;9.388;2022-08-02T00:11:53;11.40;99.90
19152;DHT22;9708;53.114;9.388;2022-08-02T00:14:20;11.40;99.90
19152;DHT22;9708;53.114;9.388;2022-08-02T00:16:47;11.40;99.90
19152;DHT22;9708;53.114;9.388;2022-08-02T00:19:14;11.40;99.90
19152;DHT22;9708;53.114;9.388;2022-08-02T00:21:41;11.40;99.90
19152;DHT22;9708;53.114;9.388;2022-08-02T00:24:09;11.40;99.90
19152;DHT22;9708;53.114;9.388;2022-08-02T00:26:36;11.40;99.90
19152;DHT22;9708;53.114;9.388;2022-08-02T00:29:03;11.40;99.90
19152;DHT22;9708;53.114;9.388;2022-08-02T00:31:30;11.30;99.90
19152;DHT22;9708;53.114;9.388;2022-08-02T00:33:57;11.30;99.90
19152;DHT22;9708;53.114;9.388;2022-08-02T00:36:23;11.20;99.90
19152;DHT22;9708;53.114;9.388;2022-08-02T00:38:50;11.20;99.90
19152;DHT22;9708;53.114;9.388;2022-08-02T00:41:20;11.20;99.90
19152;DHT22;9708;53.114;9.388;2022-08-02T00:43:49;11.10;99.90
19152;DHT22;9708;53.114;9.388;2022-08-02T00:46:16;11.10;99.90
19152;DHT22;9708;53.114;9.388;2022-08-02T00:48:43;11.00;99.90
19152;DHT22;9708;53.114;9.388;2022-08-02T00:51:11;11.00;99.90
19152;DHT22;9708;53.114;9.388;2022-08-02T00:53:38;11.00;99.90
19152;DHT22;9708;53.114;9.388;2022-08-02T00:56:05;11.00;99.90
19152;DHT22;9708;53.114;9.388;2022-08-02T00:58:34;10.90;99.90
19152;DHT22;9708;53.114;9.388;2022-08-02T01:01:00;11.00;99.90
19152;DHT22;9708;53.114;9.388;2022-08-02T01:03:28;11.00;99.90
19152;DHT22;9708;53.114;9.388;2022-08-02T01:05:54;10.90;99.90
19152;DHT22;9708;53.114;9.388;2022-08-02T01:08:21;10.80;99.90
19152;DHT22;9708;53.114;9.388;2022-08-02T01:10:48;10.80;99.90
19152;DHT22;9708;53.114;9.388;2022-08-02T01:13:15;10.80;99.90
19152;DHT22;9708;53.114;9.388;2022-08-02T01:15:48;10.80;99.90
19152;DHT22;9708;53.114;9.388;2022-08-02T01:18:23;10.80;99.90
19152;DHT22;9708;53.114;9.388;2022-08-02T01:24:03;10.60;99.90
19152;DHT22;9708;53.114;9.388;2022-08-02T01:26:38;10.60;99.90
19152;DHT22;9708;53.114;9.388;2022-08-02T01:29:12;10.60;99.90
19152;DHT22;9708;53.114;9.388;2022-08-02T01:31:46;10.60;99.90
19152;DHT22;9708;53.114;9.388;2022-08-02T01:34:18;10.50;99.90
19152;DHT22;9708;53.114;9.388;2022-08-02T01:36:50;10.50;99.90
19152;DHT22;9708;53.114;9.388;2022-08-02T01:39:24;10.50;99.90
19152;DHT22;9708;53.114;9.388;2022-08-02T01:41:52;10.40;99.90
19152;DHT22;9708;53.114;9.388;2022-08-02T01:44:22;10.40;99.90
19152;DHT22;9708;53.114;9.388;2022-08-02T01:46:51;10.30;99.90
19152;DHT22;9708;53.114;9.388;2022-08-02T01:49:20;10.40;99.90
19152;DHT22;9708;53.114;9.388;2022-08-02T01:51:50;10.40;99.90
19152;DHT22;9708;53.114;9.388;2022-08-02T01:54:36;10.40;99.90
19152;DHT22;9708;53.114;9.388;2022-08-02T01:57:05;10.30;99.90
19152;DHT22;9708;53.114;9.388;2022-08-02T01:59:34;10.30;99.90
19152;DHT22;9708;53.114;9.388;2022-08-02T02:02:03;10.20;99.90
19152;DHT22;9708;53.114;9.388;2022-08-02T02:04:31;10.20;99.90
19152;DHT22;9708;53.114;9.388;2022-08-02T02:06:59;10.20;99.90
19152;DHT22;9708;53.114;9.388;2022-08-02T02:09:29;10.20;99.90
19152;DHT22;9708;53.114;9.388;2022-08-02T02:11:58;10.20;99.90
19152;DHT22;9708;53.114;9.388;2022-08-02T02:14:27;10.10;99.90
19152;DHT22;9708;53.114;9.388;2022-08-02T02:16:56;10.20;99.90
19152;DHT22;9708;53.114;9.388;2022-08-02T02:19:25;10.10;99.90
19152;DHT22;9708;53.114;9.388;2022-08-02T02:21:52;10.10;99.90
19152;DHT22;9708;53.114;9.388;2022-08-02T02:24:19;10.00;99.90
19152;DHT22;9708;53.114;9.388;2022-08-02T02:26:46;10.00;99.90
19152;DHT22;9708;53.114;9.388;2022-08-02T02:29:15;10.10;99.90
19152;DHT22;9708;53.114;9.388;2022-08-02T02:31:45;10.10;99.90
19152;DHT22;9708;53.114;9.388;2022-08-02T02:34:17;10.00;99.90
19152;DHT22;9708;53.114;9.388;2022-08-02T02:36:50;10.00;99.90
19152;DHT22;9708;53.114;9.388;2022-08-02T02:39:20;10.00;99.90
19152;DHT22;9708;53.114;9.388;2022-08-02T02:41:48;9.90;99.90
19152;DHT22;9708;53.114;9.388;2022-08-02T02:44:18;9.90;99.90
19152;DHT22;9708;53.114;9.388;2022-08-02T02:46:47;9.80;99.90
19152;DHT22;9708;53.114;9.388;2022-08-02T02:49:17;9.80;99.90
19152;DHT22;9708;53.114;9.388;2022-08-02T02:51:44;9.80;99.90
19152;DHT22;9708;53.114;9.388;2022-08-02T02:54:12;9.90;99.90
19152;DHT22;9708;53.114;9.388;2022-08-02T02:56:40;9.80;99.90
19152;DHT22;9708;53.114;9.388;2022-08-02T02:59:08;9.80;99.90
19152;DHT22;9708;53.114;9.388;2022-08-02T03:01:35;9.80;99.90
19152;DHT22;9708;53.114;9.388;2022-08-02T03:04:04;9.70;99.90
19152;DHT22;9708;53.114;9.388;2022-08-02T03:06:35;9.80;99.90
19152;DHT22;9708;53.114;9.388;2022-08-02T03:09:02;9.80;99.90
19152;DHT22;9708;53.114;9.388;2022-08-02T03:11:30;9.80;99.90
19152;DHT22;9708;53.114;9.388;2022-08-02T03:13:58;9.80;99.90
19152;DHT22;9708;53.114;9.388;2022-08-02T03:16:25;9.70;99.90
19152;DHT22;9708;53.114;9.388;2022-08-02T03:18:53;9.80;99.90
19152;DHT22;9708;53.114;9.388;2022-08-02T03:21:20;9.80;99.90
19152;DHT22;9708;53.114;9.388;2022-08-02T03:23:49;9.80;99.90
19152;DHT22;9708;53.114;9.388;2022-08-02T03:26:16;9.90;99.90
19152;DHT22;9708;53.114;9.388;2022-08-02T03:28:43;9.90;99.90
19152;DHT22;9708;53.114;9.388;2022-08-02T03:31:10;10.00;99.90
19152;DHT22;9708;53.114;9.388;2022-08-02T03:33:38;10.00;99.90
19152;DHT22;9708;53.114;9.388;2022-08-02T03:36:09;10.00;99.90
19152;DHT22;9708;53.114;9.388;2022-08-02T03:38:37;10.00;99.90
19152;DHT22;9708;53.114;9.388;2022-08-02T03:41:06;10.00;99.90
19152;DHT22;9708;53.114;9.388;2022-08-02T03:43:34;10.00;99.90
19152;DHT22;9708;53.114;9.388;2022-08-02T03:46:02;10.00;99.90
19152;DHT22;9708;53.114;9.388;2022-08-02T03:48:30;10.00;99.90
19152;DHT22;9708;53.114;9.388;2022-08-02T03:50:58;9.90;99.90
19152;DHT22;9708;53.114;9.388;2022-08-02T03:53:26;9.90;99.90
19152;DHT22;9708;53.114;9.388;2022-08-02T03:55:53;9.90;99.90
19152;DHT22;9708;53.114;9.388;2022-08-02T03:58:22;9.80;99.90
19152;DHT22;9708;53.114;9.388;2022-08-02T04:00:51;9.80;99.90
19152;DHT22;9708;53.114;9.388;2022-08-02T04:03:17;9.80;99.90
19152;DHT22;9708;53.114;9.388;2022-08-02T04:05:44;9.80;99.90
19152;DHT22;9708;53.114;9.388;2022-08-02T04:08:11;9.70;99.90
19152;DHT22;9708;53.114;9.388;2022-08-02T04:10:38;9.70;99.90
19152;DHT22;9708;53.114;9.388;2022-08-02T04:13:27;9.70;99.90
19152;DHT22;9708;53.114;9.388;2022-08-02T04:15:57;9.70;99.90
19152;DHT22;9708;53.114;9.388;2022-08-02T04:18:29;9.70;99.90
19152;DHT22;9708;53.114;9.388;2022-08-02T04:20:57;9.70;99.90
19152;DHT22;9708;53.114;9.388;2022-08-02T04:23:26;9.60;99.90
19152;DHT22;9708;53.114;9.388;2022-08-02T04:25:56;9.70;99.90
19152;DHT22;9708;53.114;9.388;2022-08-02T04:28:24;9.70;99.90
19152;DHT22;9708;53.114;9.388;2022-08-02T04:30:51;9.70;99.90
19152;DHT22;9708;53.114;9.388;2022-08-02T04:33:19;9.70;99.90
19152;DHT22;9708;53.114;9.388;2022-08-02T04:35:46;9.70;99.90
19152;DHT22;9708;53.114;9.388;2022-08-02T04:38:14;9.70;99.90
19152;DHT22;9708;53.114;9.388;2022-08-02T04:40:49;9.80;99.90
19152;DHT22;9708;53.114;9.388;2022-08-02T04:43:16;9.70;99.90
19152;DHT22;9708;53.114;9.388;2022-08-02T04:45:45;9.80;99.90
19152;DHT22;9708;53.114;9.388;2022-08-02T04:48:12;9.90;99.90
19152;DHT22;9708;53.114;9.388;2022-08-02T04:50:39;10.00;99.90
19152;DHT22;9708;53.114;9.388;2022-08-02T04:53:06;10.10;99.90
19152;DHT22;9708;53.114;9.388;2022-08-02T04:55:33;10.30;99.90
19152;DHT22;9708;53.114;9.388;2022-08-02T04:57:59;10.60;99.90
19152;DHT22;9708;53.114;9.388;2022-08-02T05:00:27;10.70;99.90
19152;DHT22;9708;53.114;9.388;2022-08-02T05:02:56;11.10;99.90
19152;DHT22;9708;53.114;9.388;2022-08-02T05:05:23;11.40;99.90
19152;DHT22;9708;53.114;9.388;2022-08-02T05:07:50;11.80;99.90
19152;DHT22;9708;53.114;9.388;2022-08-02T05:10:17;12.60;99.90
19152;DHT22;9708;53.114;9.388;2022-08-02T05:12:44;14.40;99.90
19152;DHT22;9708;53.114;9.388;2022-08-02T05:15:12;16.70;99.90
19152;DHT22;9708;53.114;9.388;2022-08-02T05:17:41;17.80;99.90
19152;DHT22;9708;53.114;9.388;2022-08-02T05:20:10;18.10;99.90
19152;DHT22;9708;53.114;9.388;2022-08-02T05:22:38;18.10;99.90
19152;DHT22;9708;53.114;9.388;2022-08-02T05:25:05;18.80;99.90
19152;DHT22;9708;53.114;9.388;2022-08-02T05:27:32;19.20;99.90
19152;DHT22;9708;53.114;9.388;2022-08-02T05:29:59;19.40;99.90
19152;DHT22;9708;53.114;9.388;2022-08-02T05:32:26;18.20;99.90
19152;DHT22;9708;53.114;9.388;2022-08-02T05:34:53;18.60;99.90
19152;DHT22;9708;53.114;9.388;2022-08-02T05:37:21;17.90;99.90
19152;DHT22;9708;53.114;9.388;2022-08-02T05:39:47;18.40;99.90
19152;DHT22;9708;53.114;9.388;2022-08-02T05:42:14;20.20;99.90
19152;DHT22;9708;53.114;9.388;2022-08-02T05:44:41;21.20;99.90
19152;DHT22;9708;53.114;9.388;2022-08-02T05:47:08;21.60;99.90
19152;DHT22;9708;53.114;9.388;2022-08-02T05:49:35;20.80;99.90
19152;DHT22;9708;53.114;9.388;2022-08-02T05:52:08;22.20;99.90
19152;DHT22;9708;53.114;9.388;2022-08-02T05:54:46;23.10;99.90
19152;DHT22;9708;53.114;9.388;2022-08-02T05:57:19;23.80;99.90
19152;DHT22;9708;53.114;9.388;2022-08-02T05:59:59;22.90;99.90
19152;DHT22;9708;53.114;9.388;2022-08-02T06:02:29;21.30;99.90
19152;DHT22;9708;53.114;9.388;2022-08-02T06:05:03;22.00;99.90
19152;DHT22;9708;53.114;9.388;2022-08-02T06:07:34;21.40;99.90
19152;DHT22;9708;53.114;9.388;2022-08-02T06:10:03;22.40;99.90
19152;DHT22;9708;53.114;9.388;2022-08-02T06:12:32;21.60;99.90
19152;DHT22;9708;53.114;9.388;2022-08-02T06:15:02;21.90;99.90
19152;DHT22;9708;53.114;9.388;2022-08-02T06:17:30;23.60;99.90
19152;DHT22;9708;53.114;9.388;2022-08-02T06:19:59;24.50;99.90
19152;DHT22;9708;53.114;9.388;2022-08-02T06:22:27;24.90;99.90
19152;DHT22;9708;53.114;9.388;2022-08-02T06:24:55;24.00;99.90
19152;DHT22;9708;53.114;9.388;2022-08-02T06:27:26;24.40;99.90
19152;DHT22;9708;53.114;9.388;2022-08-02T06:29:54;24.30;99.90
19152;DHT22;9708;53.114;9.388;2022-08-02T06:32:21;24.40;99.90
19152;DHT22;9708;53.114;9.388;2022-08-02T06:34:47;23.60;99.90
19152;DHT22;9708;53.114;9.388;2022-08-02T06:37:23;22.70;99.90
19152;DHT22;9708;53.114;9.388;2022-08-02T06:39:58;21.90;99.90
19152;DHT22;9708;53.114;9.388;2022-08-02T06:42:33;22.40;99.90
19152;DHT22;9708;53.114;9.388;2022-08-02T06:45:03;22.80;99.90
19152;DHT22;9708;53.114;9.388;2022-08-02T06:47:30;21.70;99.90
19152;DHT22;9708;53.114;9.388;2022-08-02T06:49:57;22.30;99.90
19152;DHT22;9708;53.114;9.388;2022-08-02T06:52:25;22.30;99.90
19152;DHT22;9708;53.114;9.388;2022-08-02T06:54:52;22.20;99.90
19152;DHT22;9708;53.114;9.388;2022-08-02T06:57:20;21.90;99.90
19152;DHT22;9708;53.114;9.388;2022-08-02T06:59:48;22.10;99.90
19152;DHT22;9708;53.114;9.388;2022-08-02T07:02:15;21.60;99.90
19152;DHT22;9708;53.114;9.388;2022-08-02T07:04:42;21.40;99.90
19152;DHT22;9708;53.114;9.388;2022-08-02T07:07:09;21.80;99.90
19152;DHT22;9708;53.114;9.388;2022-08-02T07:09:35;21.60;99.90
19152;DHT22;9708;53.114;9.388;2022-08-02T07:12:03;22.00;99.90
19152;DHT22;9708;53.114;9.388;2022-08-02T07:14:30;22.40;99.90
19152;DHT22;9708;53.114;9.388;2022-08-02T07:16:58;21.90;99.90
19152;DHT22;9708;53.114;9.388;2022-08-02T07:19:25;22.40;99.90
19152;DHT22;9708;53.114;9.388;2022-08-02T07:21:52;22.00;99.90
19152;DHT22;9708;53.114;9.388;2022-08-02T07:24:19;22.30;99.90
19152;DHT22;9708;53.114;9.388;2022-08-02T07:26:45;21.80;99.90
19152;DHT22;9708;53.114;9.388;2022-08-02T07:29:12;22.10;99.90
19152;DHT22;9708;53.114;9.388;2022-08-02T07:31:39;22.80;99.90
19152;DHT22;9708;53.114;9.388;2022-08-02T07:34:07;23.10;99.90
19152;DHT22;9708;53.114;9.388;2022-08-02T07:36:34;22.00;99.90
19152;DHT22;9708;53.114;9.388;2022-08-02T07:39:01;21.70;99.90
19152;DHT22;9708;53.114;9.388;2022-08-02T07:41:28;21.00;99.90
19152;DHT22;9708;53.114;9.388;2022-08-02T07:43:54;20.90;99.90
19152;DHT22;9708;53.114;9.388;2022-08-02T07:46:21;22.30;99.90
19152;DHT22;9708;53.114;9.388;2022-08-02T07:48:48;22.40;99.90
19152;DHT22;9708;53.114;9.388;2022-08-02T07:51:19;22.40;99.90
19152;DHT22;9708;53.114;9.388;2022-08-02T07:53:45;22.50;99.90
19152;DHT22;9708;53.114;9.388;2022-08-02T07:56:12;23.10;99.90
19152;DHT22;9708;53.114;9.388;2022-08-02T07:58:40;23.40;99.90
19152;DHT22;9708;53.114;9.388;2022-08-02T08:01:07;22.70;99.90
19152;DHT22;9708;53.114;9.388;2022-08-02T08:03:34;21.90;99.90
19152;DHT22;9708;53.114;9.388;2022-08-02T08:06:01;21.90;99.90
19152;DHT22;9708;53.114;9.388;2022-08-02T08:08:29;21.60;99.90
19152;DHT22;9708;53.114;9.388;2022-08-02T08:10:55;21.70;99.90
19152;DHT22;9708;53.114;9.388;2022-08-02T08:13:22;21.70;99.90
19152;DHT22;9708;53.114;9.388;2022-08-02T08:15:49;22.30;99.90
19152;DHT22;9708;53.114;9.388;2022-08-02T08:18:16;22.40;99.90
19152;DHT22;9708;53.114;9.388;2022-08-02T08:20:42;22.80;99.90
19152;DHT22;9708;53.114;9.388;2022-08-02T08:23:09;23.40;99.90
19152;DHT22;9708;53.114;9.388;2022-08-02T08:28:05;24.50;99.90
19152;DHT22;9708;53.114;9.388;2022-08-02T08:30:31;23.20;99.90
19152;DHT22;9708;53.114;9.388;2022-08-02T08:32:58;22.90;99.90
19152;DHT22;9708;53.114;9.388;2022-08-02T08:35:25;23.50;99.90
19152;DHT22;9708;53.114;9.388;2022-08-02T08:37:52;24.00;99.90
19152;DHT22;9708;53.114;9.388;2022-08-02T08:40:19;23.60;99.90
19152;DHT22;9708;53.114;9.388;2022-08-02T08:42:46;23.40;99.90
19152;DHT22;9708;53.114;9.388;2022-08-02T08:45:14;23.30;99.90
19152;DHT22;9708;53.114;9.388;2022-08-02T08:47:42;23.60;99.90
19152;DHT22;9708;53.114;9.388;2022-08-02T08:50:11;24.00;99.90
19152;DHT22;9708;53.114;9.388;2022-08-02T08:52:42;24.20;99.90
19152;DHT22;9708;53.114;9.388;2022-08-02T08:55:09;24.50;99.90
19152;DHT22;9708;53.114;9.388;2022-08-02T08:57:40;24.50;99.90
19152;DHT22;9708;53.114;9.388;2022-08-02T09:00:08;25.10;99.90
19152;DHT22;9708;53.114;9.388;2022-08-02T09:02:39;24.70;99.90
19152;DHT22;9708;53.114;9.388;2022-08-02T09:05:09;24.80;99.90
19152;DHT22;9708;53.114;9.388;2022-08-02T09:07:36;25.10;99.90
19152;DHT22;9708;53.114;9.388;2022-08-02T09:10:31;26.00;99.90
19152;DHT22;9708;53.114;9.388;2022-08-02T09:13:06;25.80;99.90
19152;DHT22;9708;53.114;9.388;2022-08-02T09:15:33;25.30;99.90
19152;DHT22;9708;53.114;9.388;2022-08-02T09:18:02;25.20;99.90
19152;DHT22;9708;53.114;9.388;2022-08-02T09:20:29;25.20;99.90
19152;DHT22;9708;53.114;9.388;2022-08-02T09:23:06;24.80;99.90
19152;DHT22;9708;53.114;9.388;2022-08-02T09:25:34;24.70;99.90
19152;DHT22;9708;53.114;9.388;2022-08-02T09:28:03;24.50;99.90
19152;DHT22;9708;53.114;9.388;2022-08-02T09:30:30;24.70;99.90
19152;DHT22;9708;53.114;9.388;2022-08-02T09:32:57;24.70;99.90
19152;DHT22;9708;53.114;9.388;2022-08-02T09:35:50;25.10;99.90
19152;DHT22;9708;53.114;9.388;2022-08-02T09:38:24;25.00;99.90
19152;DHT22;9708;53.114;9.388;2022-08-02T09:40:51;25.30;99.90
19152;DHT22;9708;53.114;9.388;2022-08-02T09:43:18;25.60;99.90
19152;DHT22;9708;53.114;9.388;2022-08-02T09:45:45;25.80;99.90
19152;DHT22;9708;53.114;9.388;2022-08-02T09:48:12;25.60;99.90
19152;DHT22;9708;53.114;9.388;2022-08-02T09:50:40;25.70;99.90
19152;DHT22;9708;53.114;9.388;2022-08-02T09:53:12;26.00;99.90
19152;DHT22;9708;53.114;9.388;2022-08-02T09:55:39;26.00;99.90
19152;DHT22;9708;53.114;9.388;2022-08-02T09:58:24;26.30;99.90
19152;DHT22;9708;53.114;9.388;2022-08-02T10:00:55;25.60;99.90
19152;DHT22;9708;53.114;9.388;2022-08-02T10:03:23;25.80;99.90
19152;DHT22;9708;53.114;9.388;2022-08-02T10:05:51;26.30;99.90
19152;DHT22;9708;53.114;9.388;2022-08-02T10:08:21;25.80;99.90
19152;DHT22;9708;53.114;9.388;2022-08-02T10:10:48;25.90;99.90
19152;DHT22;9708;53.114;9.388;2022-08-02T10:13:26;26.70;99.90
19152;DHT22;9708;53.114;9.388;2022-08-02T10:15:53;26.60;99.90
19152;DHT22;9708;53.114;9.388;2022-08-02T10:18:20;26.90;99.90
19152;DHT22;9708;53.114;9.388;2022-08-02T10:20:49;26.90;99.90
19152;DHT22;9708;53.114;9.388;2022-08-02T10:23:21;27.70;99.90
19152;DHT22;9708;53.114;9.388;2022-08-02T10:25:50;27.80;99.90
19152;DHT22;9708;53.114;9.388;2022-08-02T10:28:21;27.90;99.90
19152;DHT22;9708;53.114;9.388;2022-08-02T10:30:49;28.00;99.90
19152;DHT22;9708;53.114;9.388;2022-08-02T10:33:17;27.10;99.90
19152;DHT22;9708;53.114;9.388;2022-08-02T10:35:46;26.90;99.90
19152;DHT22;9708;53.114;9.388;2022-08-02T10:38:16;27.20;99.90
19152;DHT22;9708;53.114;9.388;2022-08-02T10:40:47;27.70;99.90
19152;DHT22;9708;53.114;9.388;2022-08-02T10:43:42;27.80;99.90
19152;DHT22;9708;53.114;9.388;2022-08-02T10:46:28;27.90;99.90
19152;DHT22;9708;53.114;9.388;2022-08-02T10:49:17;27.40;99.90
19152;DHT22;9708;53.114;9.388;2022-08-02T10:52:06;28.40;99.90
19152;DHT22;9708;53.114;9.388;2022-08-02T10:54:38;28.70;99.90
19152;DHT22;9708;53.114;9.388;2022-08-02T10:57:18;28.70;99.90
19152;DHT22;9708;53.114;9.388;2022-08-02T10:59:47;28.60;99.90
19152;DHT22;9708;53.114;9.388;2022-08-02T11:02:35;28.40;99.90
19152;DHT22;9708;53.114;9.388;2022-08-02T11:05:14;28.70;99.90
19152;DHT22;9708;53.114;9.388;2022-08-02T11:07:44;28.90;99.90
19152;DHT22;9708;53.114;9.388;2022-08-02T11:10:35;28.90;99.90
19152;DHT22;9708;53.114;9.388;2022-08-02T11:13:09;29.20;99.90
19152;DHT22;9708;53.114;9.388;2022-08-02T11:15:51;29.20;99.90
19152;DHT22;9708;53.114;9.388;2022-08-02T11:18:19;29.30;99.90
19152;DHT22;9708;53.114;9.388;2022-08-02T11:20:46;29.10;99.90
19152;DHT22;9708;53.114;9.388;2022-08-02T11:23:35;29.70;99.90
19152;DHT22;9708;53.114;9.388;2022-08-02T11:26:02;29.70;99.90
19152;DHT22;9708;53.114;9.388;2022-08-02T11:28:50;29.20;99.90
19152;DHT22;9708;53.114;9.388;2022-08-02T11:31:17;29.20;99.90
19152;DHT22;9708;53.114;9.388;2022-08-02T11:33:44;29.20;99.90
19152;DHT22;9708;53.114;9.388;2022-08-02T11:36:14;28.60;99.90
19152;DHT22;9708;53.114;9.388;2022-08-02T11:38:41;28.80;99.90
19152;DHT22;9708;53.114;9.388;2022-08-02T11:41:08;29.10;99.90
19152;DHT22;9708;53.114;9.388;2022-08-02T11:43:36;29.40;99.90
19152;DHT22;9708;53.114;9.388;2022-08-02T11:46:11;29.20;99.90
19152;DHT22;9708;53.114;9.388;2022-08-02T11:48:40;29.30;99.90
19152;DHT22;9708;53.114;9.388;2022-08-02T11:51:08;29.50;99.90
19152;DHT22;9708;53.114;9.388;2022-08-02T11:53:46;28.50;99.70
19152;DHT22;9708;53.114;9.388;2022-08-02T11:56:14;28.50;99.90
19152;DHT22;9708;53.114;9.388;2022-08-02T11:58:59;28.20;99.90
19152;DHT22;9708;53.114;9.388;2022-08-02T12:01:29;28.50;99.90
19152;DHT22;9708;53.114;9.388;2022-08-02T12:03:56;27.80;99.90
19152;DHT22;9708;53.114;9.388;2022-08-02T12:06:25;28.10;99.90
19152;DHT22;9708;53.114;9.388;2022-08-02T12:08:58;28.40;99.90
19152;DHT22;9708;53.114;9.388;2022-08-02T12:11:25;28.50;99.90
19152;DHT22;9708;53.114;9.388;2022-08-02T12:13:51;29.00;99.90
19152;DHT22;9708;53.114;9.388;2022-08-02T12:16:18;29.10;99.90
19152;DHT22;9708;53.114;9.388;2022-08-02T12:19:04;28.60;99.90
19152;DHT22;9708;53.114;9.388;2022-08-02T12:21:44;28.90;99.90
19152;DHT22;9708;53.114;9.388;2022-08-02T12:24:11;29.30;99.90
19152;DHT22;9708;53.114;9.388;2022-08-02T12:26:42;29.70;99.90
19152;DHT22;9708;53.114;9.388;2022-08-02T12:29:09;29.50;99.90
19152;DHT22;9708;53.114;9.388;2022-08-02T12:31:42;29.50;99.90
19152;DHT22;9708;53.114;9.388;2022-08-02T12:34:15;29.70;99.90
19152;DHT22;9708;53.114;9.388;2022-08-02T12:36:43;29.40;99.90
19152;DHT22;9708;53.114;9.388;2022-08-02T12:39:33;28.90;99.90
19152;DHT22;9708;53.114;9.388;2022-08-02T12:42:00;27.90;99.90
19152;DHT22;9708;53.114;9.388;2022-08-02T12:44:27;27.90;99.90
19152;DHT22;9708;53.114;9.388;2022-08-02T12:47:01;28.40;99.90
19152;DHT22;9708;53.114;9.388;2022-08-02T12:49:30;28.50;99.90
19152;DHT22;9708;53.114;9.388;2022-08-02T12:51:56;28.10;99.90
19152;DHT22;9708;53.114;9.388;2022-08-02T12:54:24;28.30;99.90
19152;DHT22;9708;53.114;9.388;2022-08-02T12:56:52;28.30;99.90
19152;DHT22;9708;53.114;9.388;2022-08-02T12:59:33;28.20;99.90
19152;DHT22;9708;53.114;9.388;2022-08-02T13:02:04;28.00;99.90
19152;DHT22;9708;53.114;9.388;2022-08-02T13:04:32;27.70;99.90
19152;DHT22;9708;53.114;9.388;2022-08-02T13:06:59;28.00;99.90
19152;DHT22;9708;53.114;9.388;2022-08-02T13:09:26;27.50;99.90
19152;DHT22;9708;53.114;9.388;2022-08-02T13:11:53;27.50;99.90
19152;DHT22;9708;53.114;9.388;2022-08-02T13:14:20;27.40;99.90
19152;DHT22;9708;53.114;9.388;2022-08-02T13:16:47;27.50;99.90
19152;DHT22;9708;53.114;9.388;2022-08-02T13:19:13;27.70;99.90
19152;DHT22;9708;53.114;9.388;2022-08-02T13:21:43;27.90;99.90
19152;DHT22;9708;53.114;9.388;2022-08-02T13:24:10;27.70;99.90
19152;DHT22;9708;53.114;9.388;2022-08-02T13:26:40;28.20;99.90
19152;DHT22;9708;53.114;9.388;2022-08-02T13:29:07;28.40;99.90
19152;DHT22;9708;53.114;9.388;2022-08-02T13:31:34;29.10;99.90
19152;DHT22;9708;53.114;9.388;2022-08-02T13:34:02;29.20;99.90
19152;DHT22;9708;53.114;9.388;2022-08-02T13:36:29;29.10;99.90
19152;DHT22;9708;53.114;9.388;2022-08-02T13:38:58;28.40;99.90
19152;DHT22;9708;53.114;9.388;2022-08-02T13:41:25;28.10;99.90
19152;DHT22;9708;53.114;9.388;2022-08-02T13:43:52;28.30;99.90
19152;DHT22;9708;53.114;9.388;2022-08-02T13:46:19;28.40;99.90
19152;DHT22;9708;53.114;9.388;2022-08-02T13:48:46;28.60;99.90
19152;DHT22;9708;53.114;9.388;2022-08-02T13:51:12;28.10;99.90
19152;DHT22;9708;53.114;9.388;2022-08-02T13:53:39;28.20;99.90
19152;DHT22;9708;53.114;9.388;2022-08-02T13:56:07;28.30;99.90
19152;DHT22;9708;53.114;9.388;2022-08-02T13:58:34;28.70;99.90
19152;DHT22;9708;53.114;9.388;2022-08-02T14:01:01;29.00;99.90
19152;DHT22;9708;53.114;9.388;2022-08-02T14:03:28;29.30;99.90
19152;DHT22;9708;53.114;9.388;2022-08-02T14:05:55;29.00;99.90
19152;DHT22;9708;53.114;9.388;2022-08-02T14:08:22;28.40;99.90
19152;DHT22;9708;53.114;9.388;2022-08-02T14:10:50;27.90;99.90
19152;DHT22;9708;53.114;9.388;2022-08-02T14:13:18;27.90;99.90
19152;DHT22;9708;53.114;9.388;2022-08-02T14:15:46;27.90;99.90
19152;DHT22;9708;53.114;9.388;2022-08-02T14:18:13;27.90;99.90
19152;DHT22;9708;53.114;9.388;2022-08-02T14:20:40;27.80;99.90
19152;DHT22;9708;53.114;9.388;2022-08-02T14:23:07;28.00;99.90
19152;DHT22;9708;53.114;9.388;2022-08-02T14:25:34;28.00;99.90
19152;DHT22;9708;53.114;9.388;2022-08-02T14:28:01;27.70;99.90
19152;DHT22;9708;53.114;9.388;2022-08-02T14:30:29;27.70;99.90
19152;DHT22;9708;53.114;9.388;2022-08-02T14:32:56;27.30;99.90
19152;DHT22;9708;53.114;9.388;2022-08-02T14:35:22;27.40;99.90
19152;DHT22;9708;53.114;9.388;2022-08-02T14:37:49;27.50;99.90
19152;DHT22;9708;53.114;9.388;2022-08-02T14:40:16;27.50;99.90
19152;DHT22;9708;53.114;9.388;2022-08-02T14:42:43;27.60;99.90
19152;DHT22;9708;53.114;9.388;2022-08-02T14:45:10;27.50;99.90
19152;DHT22;9708;53.114;9.388;2022-08-02T14:47:38;27.50;99.90
19152;DHT22;9708;53.114;9.388;2022-08-02T14:50:05;27.20;99.90
19152;DHT22;9708;53.114;9.388;2022-08-02T14:52:32;27.20;99.90
19152;DHT22;9708;53.114;9.388;2022-08-02T14:54:59;27.40;99.90
19152;DHT22;9708;53.114;9.388;2022-08-02T14:57:27;27.30;99.90
19152;DHT22;9708;53.114;9.388;2022-08-02T14:59:54;27.20;99.90
19152;DHT22;9708;53.114;9.388;2022-08-02T15:02:21;27.20;99.90
19152;DHT22;9708;53.114;9.388;2022-08-02T15:04:49;27.50;99.90
19152;DHT22;9708;53.114;9.388;2022-08-02T15:07:16;27.60;99.90
19152;DHT22;9708;53.114;9.388;2022-08-02T15:09:43;27.50;99.90
19152;DHT22;9708;53.114;9.388;2022-08-02T15:12:10;27.50;99.90
19152;DHT22;9708;53.114;9.388;2022-08-02T15:14:38;27.20;99.90
19152;DHT22;9708;53.114;9.388;2022-08-02T15:17:06;27.20;99.90
19152;DHT22;9708;53.114;9.388;2022-08-02T15:19:33;27.10;99.90
19152;DHT22;9708;53.114;9.388;2022-08-02T15:22:01;27.10;99.90
19152;DHT22;9708;53.114;9.388;2022-08-02T15:24:28;27.30;99.90
19152;DHT22;9708;53.114;9.388;2022-08-02T15:26:55;27.30;99.90
19152;DHT22;9708;53.114;9.388;2022-08-02T15:29:22;27.20;99.90
19152;DHT22;9708;53.114;9.388;2022-08-02T15:31:49;27.10;99.90
19152;DHT22;9708;53.114;9.388;2022-08-02T15:34:15;27.20;99.90
19152;DHT22;9708;53.114;9.388;2022-08-02T15:36:42;27.30;99.90
19152;DHT22;9708;53.114;9.388;2022-08-02T15:39:10;27.20;99.90
19152;DHT22;9708;53.114;9.388;2022-08-02T15:41:37;27.20;99.90
19152;DHT22;9708;53.114;9.388;2022-08-02T15:44:07;27.00;99.90
19152;DHT22;9708;53.114;9.388;2022-08-02T15:46:35;26.80;99.90
19152;DHT22;9708;53.114;9.388;2022-08-02T15:49:02;26.90;99.90
19152;DHT22;9708;53.114;9.388;2022-08-02T15:51:29;26.80;99.90
19152;DHT22;9708;53.114;9.388;2022-08-02T15:53:56;26.80;99.90
19152;DHT22;9708;53.114;9.388;2022-08-02T15:56:24;26.60;99.90
19152;DHT22;9708;53.114;9.388;2022-08-02T15:58:51;26.60;99.90
19152;DHT22;9708;53.114;9.388;2022-08-02T16:01:18;26.70;99.90
19152;DHT22;9708;53.114;9.388;2022-08-02T16:03:45;26.80;99.90
19152;DHT22;9708;53.114;9.388;2022-08-02T16:06:12;26.90;99.90